Time;durP1;ratioP1;P1;durP2;ratioP2;P2;SDS_P1;SDS_P2;PMS_P1;PMS_P2;Temp;Humidity;BMP_temperature;BMP_pressure;BME280_temperature;BME280_humidity;BME280_pressure;Samples;Min_cycle;Max_cycle;Signal;HPM_P1;HPM_P2
2021/05/29 00:01:00;;;;;;;3.42;1.15;;;15.50;73.20;;;;;;4895644;29;20048;-65
2021/05/29 00:03:27;;;;;;;3.05;1.10;;;15.50;72.90;;;;;;4875013;29;20752;-65
2021/05/29 00:05:54;;;;;;;3.22;1.25;;;15.40;72.70;;;;;;4893495;29;20101;-65
2021/05/29 00:08:22;;;;;;;3.05;1.67;;;15.40;72.80;;;;;;4894706;29;20052;-65
2021/05/29 00:10:52;;;;;;;1.90;1.10;;;15.40;73.10;;;;;;4896522;29;20052;-65
2021/05/29 00:13:20;;;;;;;1.33;0.95;;;15.40;74.10;;;;;;4897642;29;20056;-65
2021/05/29 00:15:47;;;;;;;2.00;1.10;;;15.40;73.40;;;;;;4910633;29;20100;-65
2021/05/29 00:18:17;;;;;;;2.55;0.70;;;15.40;73.40;;;;;;4890757;29;20055;-65
2021/05/29 00:20:45;;;;;;;2.00;1.08;;;15.40;73.30;;;;;;4896852;29;20035;-65
2021/05/29 00:23:13;;;;;;;2.05;0.98;;;15.40;73.30;;;;;;4895987;29;20088;-65
2021/05/29 00:25:44;;;;;;;3.40;1.25;;;15.40;73.40;;;;;;4896176;29;20037;-65
2021/05/29 00:28:13;;;;;;;2.08;1.30;;;15.40;73.20;;;;;;4891558;29;20055;-65
2021/05/29 00:30:42;;;;;;;1.95;0.88;;;15.40;73.40;;;;;;4899093;29;20036;-65
2021/05/29 00:33:09;;;;;;;1.23;0.80;;;15.40;73.40;;;;;;4896149;29;20485;-65
2021/05/29 00:35:36;;;;;;;2.28;0.90;;;15.40;72.90;;;;;;4895079;29;20049;-65
2021/05/29 00:38:04;;;;;;;2.90;0.90;;;15.50;73.30;;;;;;4894677;29;20049;-65
2021/05/29 00:40:32;;;;;;;2.58;1.05;;;15.50;72.70;;;;;;4894056;29;20392;-65
2021/05/29 00:42:59;;;;;;;2.00;0.80;;;15.50;72.50;;;;;;4895156;29;20060;-65
2021/05/29 00:45:27;;;;;;;4.15;1.30;;;15.60;72.70;;;;;;4891091;29;20391;-65
2021/05/29 00:47:55;;;;;;;1.40;1.00;;;15.60;73.10;;;;;;4896146;29;20044;-65
2021/05/29 00:50:22;;;;;;;1.85;0.80;;;15.60;73.40;;;;;;4894876;29;20052;-65
2021/05/29 00:52:50;;;;;;;2.92;1.02;;;15.60;73.50;;;;;;4893544;29;20100;-65
2021/05/29 00:55:18;;;;;;;3.22;0.93;;;15.60;73.90;;;;;;4893531;29;20043;-65
2021/05/29 00:57:47;;;;;;;2.63;1.30;;;15.60;74.70;;;;;;4878094;29;20043;-65
2021/05/29 01:00:18;;;;;;;1.92;1.33;;;15.60;74.00;;;;;;4894707;29;20500;-65
2021/05/29 01:02:46;;;;;;;4.40;1.20;;;15.50;74.30;;;;;;4894859;29;20033;-65
2021/05/29 01:05:15;;;;;;;2.97;1.10;;;15.50;74.40;;;;;;4894799;29;20053;-65
2021/05/29 01:07:46;;;;;;;1.65;1.00;;;15.40;75.20;;;;;;4889717;29;20036;-65
2021/05/29 01:10:14;;;;;;;2.55;1.00;;;15.40;75.90;;;;;;4894677;29;20408;-65
2021/05/29 01:12:42;;;;;;;2.65;1.30;;;15.40;75.70;;;;;;4894998;29;20100;-65
2021/05/29 01:15:10;;;;;;;2.45;1.00;;;15.40;75.60;;;;;;4890872;29;20704;-65
2021/05/29 01:17:37;;;;;;;2.28;1.23;;;15.40;75.70;;;;;;4895670;29;20496;-65
2021/05/29 01:20:06;;;;;;;2.63;1.13;;;15.40;75.80;;;;;;4895243;29;20420;-65
2021/05/29 01:22:47;;;;;;;2.28;0.95;;;15.40;76.30;;;;;;4895407;29;20041;-65
2021/05/29 01:25:26;;;;;;;7.13;3.40;;;15.30;77.50;;;;;;4895806;29;20097;-65
2021/05/29 01:28:19;;;;;;;3.78;1.85;;;15.30;77.30;;;;;;4893470;29;20480;-65
2021/05/29 01:30:50;;;;;;;3.97;1.35;;;15.30;76.70;;;;;;4908749;29;20056;-65
2021/05/29 01:33:28;;;;;;;3.72;1.30;;;15.30;77.30;;;;;;4893058;29;20059;-64
2021/05/29 01:35:59;;;;;;;2.80;1.20;;;15.30;75.90;;;;;;4880027;29;20045;-64
2021/05/29 01:38:27;;;;;;;2.50;0.98;;;15.30;76.10;;;;;;4899008;29;20047;-64
2021/05/29 01:41:03;;;;;;;3.65;1.42;;;15.30;75.60;;;;;;4896890;29;20040;-64
2021/05/29 01:43:30;;;;;;;3.25;1.73;;;15.30;76.30;;;;;;4895311;29;20096;-65
2021/05/29 01:45:58;;;;;;;5.32;2.03;;;15.40;76.40;;;;;;4895742;29;20056;-65
2021/05/29 01:48:32;;;;;;;3.85;1.88;;;15.40;75.90;;;;;;4896831;29;20044;-65
2021/05/29 01:50:59;;;;;;;5.80;3.25;;;15.40;75.70;;;;;;4892617;29;20057;-65
2021/05/29 01:53:28;;;;;;;4.85;3.30;;;15.40;76.20;;;;;;4895188;29;20050;-65
2021/05/29 01:55:55;;;;;;;3.60;1.70;;;15.40;77.00;;;;;;4907510;29;20052;-65
2021/05/29 01:58:22;;;;;;;2.55;1.45;;;15.40;76.80;;;;;;4897400;29;20052;-65
2021/05/29 02:00:49;;;;;;;3.60;1.42;;;15.30;76.80;;;;;;4897663;29;20072;-65
2021/05/29 02:03:17;;;;;;;2.92;1.60;;;15.20;77.10;;;;;;4895890;29;20548;-65
2021/05/29 02:05:44;;;;;;;5.40;1.45;;;15.20;77.60;;;;;;4899193;29;20068;-65
2021/05/29 02:08:12;;;;;;;2.08;1.20;;;15.20;76.60;;;;;;4896968;29;20049;-65
2021/05/29 02:10:42;;;;;;;2.28;1.00;;;15.10;76.40;;;;;;4896365;29;20131;-65
2021/05/29 02:13:34;;;;;;;2.30;1.20;;;15.20;76.60;;;;;;4892978;29;20072;-66
2021/05/29 02:16:02;;;;;;;2.38;1.23;;;15.20;77.00;;;;;;4891364;29;20071;-65
2021/05/29 02:18:29;;;;;;;2.20;1.30;;;15.20;77.00;;;;;;4897324;29;20072;-65
2021/05/29 02:21:03;;;;;;;2.55;1.30;;;15.20;77.30;;;;;;4896954;29;20052;-65
2021/05/29 02:23:36;;;;;;;1.63;1.15;;;15.20;77.80;;;;;;4895417;29;20117;-65
2021/05/29 02:26:11;;;;;;;2.97;1.48;;;15.20;77.50;;;;;;4890907;29;20041;-65
2021/05/29 02:28:42;;;;;;;2.40;1.15;;;15.10;77.60;;;;;;4898062;29;20049;-65
2021/05/29 02:31:10;;;;;;;4.07;1.73;;;15.10;78.30;;;;;;4896544;29;20108;-65
2021/05/29 02:33:38;;;;;;;3.28;1.40;;;15.10;78.00;;;;;;4897357;29;20056;-65
2021/05/29 02:36:07;;;;;;;1.90;1.10;;;15.10;77.40;;;;;;4896887;29;20060;-65
2021/05/29 02:38:34;;;;;;;3.22;1.52;;;15.10;77.60;;;;;;4896612;29;20056;-65
2021/05/29 02:41:03;;;;;;;2.63;1.38;;;15.10;77.60;;;;;;4892051;29;20068;-65
2021/05/29 02:43:31;;;;;;;3.53;1.73;;;15.10;78.80;;;;;;4896429;29;20529;-65
2021/05/29 02:45:58;;;;;;;2.53;1.25;;;15.10;78.90;;;;;;4896950;29;20044;-65
2021/05/29 02:48:25;;;;;;;3.00;1.48;;;15.10;78.80;;;;;;4895030;29;20097;-65
2021/05/29 02:50:52;;;;;;;4.15;1.45;;;15.10;79.70;;;;;;4895822;29;20056;-65
2021/05/29 02:53:19;;;;;;;2.15;1.30;;;15.10;79.00;;;;;;4895815;29;20051;-65
2021/05/29 02:55:46;;;;;;;4.43;2.80;;;15.10;79.30;;;;;;4898203;29;20044;-65
2021/05/29 02:58:14;;;;;;;4.05;1.92;;;15.10;79.40;;;;;;4894231;29;20052;-65
2021/05/29 03:00:43;;;;;;;4.05;2.13;;;15.10;79.60;;;;;;4896922;29;20051;-65
2021/05/29 03:03:11;;;;;;;3.90;1.70;;;15.00;79.90;;;;;;4911859;29;20444;-65
2021/05/29 03:05:41;;;;;;;4.78;1.90;;;15.00;79.80;;;;;;4896012;29;20073;-65
2021/05/29 03:08:09;;;;;;;7.50;2.35;;;15.00;80.00;;;;;;4890681;29;20457;-65
2021/05/29 03:10:36;;;;;;;3.28;1.92;;;15.00;80.10;;;;;;4893348;29;20511;-65
2021/05/29 03:13:07;;;;;;;2.60;1.33;;;15.00;80.00;;;;;;4894884;29;20658;-65
2021/05/29 03:15:36;;;;;;;2.90;1.83;;;15.00;79.80;;;;;;4895117;29;20054;-65
2021/05/29 03:18:05;;;;;;;2.25;1.55;;;15.00;80.20;;;;;;4894969;29;20473;-65
2021/05/29 03:20:34;;;;;;;4.28;1.95;;;14.90;79.90;;;;;;4894951;29;20053;-65
2021/05/29 03:23:05;;;;;;;5.00;2.22;;;15.00;79.80;;;;;;4894376;29;20108;-65
2021/05/29 03:25:33;;;;;;;3.05;1.55;;;15.00;79.70;;;;;;4895964;29;20045;-65
2021/05/29 03:28:01;;;;;;;3.28;1.98;;;15.00;79.20;;;;;;4896275;29;20385;-65
2021/05/29 03:30:29;;;;;;;2.72;1.60;;;15.10;78.80;;;;;;4891565;29;20053;-65
2021/05/29 03:32:58;;;;;;;2.38;1.85;;;15.10;79.20;;;;;;4893932;29;20135;-65
2021/05/29 03:35:25;;;;;;;2.85;1.50;;;15.00;79.20;;;;;;4895536;29;20068;-65
2021/05/29 03:37:53;;;;;;;3.60;1.63;;;15.00;79.20;;;;;;4897192;29;20526;-65
2021/05/29 03:40:20;;;;;;;3.30;1.38;;;15.00;79.80;;;;;;4894359;29;20047;-65
2021/05/29 03:42:48;;;;;;;4.07;2.10;;;15.00;80.30;;;;;;4882780;29;20053;-65
2021/05/29 03:45:17;;;;;;;2.13;1.70;;;15.00;80.60;;;;;;4901616;29;20044;-65
2021/05/29 03:47:44;;;;;;;3.08;1.80;;;15.00;80.20;;;;;;4894018;29;20374;-65
2021/05/29 03:50:15;;;;;;;5.15;2.08;;;15.00;79.90;;;;;;4895640;29;20074;-65
2021/05/29 03:52:42;;;;;;;3.67;1.88;;;15.00;80.00;;;;;;4892193;29;20045;-65
2021/05/29 03:55:11;;;;;;;3.42;1.90;;;15.00;80.50;;;;;;4890188;29;20520;-65
2021/05/29 03:57:39;;;;;;;7.00;2.33;;;15.00;80.70;;;;;;4893258;29;20063;-65
2021/05/29 04:00:09;;;;;;;3.33;2.15;;;15.10;80.60;;;;;;4888274;29;20112;-65
2021/05/29 04:02:40;;;;;;;3.67;2.00;;;15.10;80.80;;;;;;4897945;29;20123;-65
2021/05/29 04:05:08;;;;;;;4.20;2.45;;;15.10;80.60;;;;;;4896871;29;20085;-65
2021/05/29 04:07:35;;;;;;;4.53;1.95;;;15.10;80.70;;;;;;4893463;29;20044;-65
2021/05/29 04:10:03;;;;;;;3.00;1.83;;;15.10;80.10;;;;;;4896939;29;20570;-64
2021/05/29 04:12:31;;;;;;;2.78;1.88;;;15.20;81.20;;;;;;4894351;29;20433;-65
2021/05/29 04:14:59;;;;;;;3.50;1.73;;;15.20;81.50;;;;;;4894107;29;20048;-65
2021/05/29 04:17:27;;;;;;;4.80;2.30;;;15.20;81.10;;;;;;4894045;29;20049;-65
2021/05/29 04:19:54;;;;;;;3.88;1.83;;;15.20;81.10;;;;;;4893420;29;20056;-65
2021/05/29 04:22:21;;;;;;;4.05;2.13;;;15.20;81.40;;;;;;4894070;29;20128;-65
2021/05/29 04:24:49;;;;;;;3.50;2.13;;;15.20;81.10;;;;;;4893999;29;20040;-65
2021/05/29 04:27:17;;;;;;;3.25;1.77;;;15.20;82.00;;;;;;4895463;29;20100;-65
2021/05/29 04:29:46;;;;;;;4.60;2.10;;;15.30;81.50;;;;;;4897090;29;20036;-65
2021/05/29 04:32:13;;;;;;;2.88;1.83;;;15.30;81.60;;;;;;4895721;29;20116;-65
2021/05/29 04:34:41;;;;;;;3.33;1.63;;;15.30;81.20;;;;;;4895155;29;20048;-65
2021/05/29 04:37:10;;;;;;;4.68;2.03;;;15.40;81.50;;;;;;4891161;29;20044;-65
2021/05/29 04:39:37;;;;;;;4.93;2.10;;;15.40;81.10;;;;;;4894603;29;20055;-65
2021/05/29 04:42:04;;;;;;;4.70;1.80;;;15.40;81.30;;;;;;4878004;29;20160;-65
2021/05/29 04:44:31;;;;;;;3.35;1.88;;;15.40;81.50;;;;;;4900090;29;20054;-65
2021/05/29 04:47:01;;;;;;;5.80;1.92;;;15.50;81.30;;;;;;4892997;29;20056;-65
2021/05/29 04:49:29;;;;;;;3.60;2.00;;;15.50;81.70;;;;;;4893800;29;20128;-65
2021/05/29 04:51:58;;;;;;;4.15;2.15;;;15.60;80.70;;;;;;4894543;29;20051;-65
2021/05/29 04:54:26;;;;;;;4.43;2.22;;;15.60;81.50;;;;;;4895509;29;20041;-65
2021/05/29 04:56:53;;;;;;;3.00;2.00;;;15.60;82.10;;;;;;4894978;29;20048;-65
2021/05/29 04:59:20;;;;;;;4.47;2.38;;;15.60;81.10;;;;;;4894108;29;20048;-65
2021/05/29 05:01:47;;;;;;;4.05;2.25;;;15.60;81.30;;;;;;4895548;29;20063;-65
2021/05/29 05:04:15;;;;;;;3.10;2.30;;;15.60;81.40;;;;;;4889354;29;20044;-65
2021/05/29 05:06:43;;;;;;;5.00;2.65;;;15.60;81.80;;;;;;4906638;29;20049;-64
2021/05/29 05:09:10;;;;;;;4.20;2.38;;;15.60;81.80;;;;;;4894288;29;20448;-64
2021/05/29 05:11:38;;;;;;;7.03;2.40;;;15.60;80.80;;;;;;4896837;29;20440;-64
2021/05/29 05:14:06;;;;;;;4.25;2.05;;;15.70;81.10;;;;;;4898414;29;20048;-65
2021/05/29 05:16:33;;;;;;;4.18;2.33;;;15.80;81.20;;;;;;4896639;29;20044;-65
2021/05/29 05:19:00;;;;;;;6.40;2.60;;;15.80;80.90;;;;;;4897948;29;20425;-65
2021/05/29 05:21:27;;;;;;;4.15;2.90;;;15.80;79.60;;;;;;4898918;29;20036;-65
2021/05/29 05:23:56;;;;;;;7.00;2.30;;;15.90;79.90;;;;;;4898712;29;20049;-65
2021/05/29 05:26:24;;;;;;;4.63;2.58;;;16.00;79.70;;;;;;4898486;29;20071;-65
2021/05/29 05:28:51;;;;;;;4.60;2.13;;;16.00;79.70;;;;;;4895583;29;20045;-65
2021/05/29 05:31:19;;;;;;;4.68;1.95;;;16.00;79.10;;;;;;4899463;29;20460;-65
2021/05/29 05:33:49;;;;;;;4.20;2.25;;;16.10;80.10;;;;;;4898293;29;20124;-65
2021/05/29 05:36:16;;;;;;;3.35;2.28;;;16.10;79.20;;;;;;4900254;29;20372;-65
2021/05/29 05:38:45;;;;;;;3.65;2.10;;;16.10;78.70;;;;;;4912109;29;20108;-65
2021/05/29 05:41:14;;;;;;;4.70;2.30;;;16.10;80.40;;;;;;4880985;29;20071;-65
2021/05/29 05:43:41;;;;;;;3.78;1.92;;;16.20;80.50;;;;;;4895236;29;20045;-65
2021/05/29 05:46:11;;;;;;;4.95;2.90;;;16.20;79.80;;;;;;4899087;29;20454;-65
2021/05/29 05:48:38;;;;;;;4.22;2.03;;;16.20;78.90;;;;;;4896196;29;20362;-65
2021/05/29 05:51:06;;;;;;;4.07;2.40;;;16.20;79.10;;;;;;4896625;29;20413;-65
2021/05/29 05:53:33;;;;;;;2.53;1.63;;;16.30;79.30;;;;;;4910220;29;20044;-65
2021/05/29 05:56:04;;;;;;;3.67;2.28;;;16.30;78.60;;;;;;4899778;29;20056;-65
2021/05/29 05:58:33;;;;;;;3.65;1.90;;;16.30;78.50;;;;;;4895061;29;20068;-65
2021/05/29 06:01:03;;;;;;;6.63;2.30;;;16.30;79.20;;;;;;4901833;29;20640;-65
2021/05/29 06:03:30;;;;;;;6.43;1.88;;;16.40;80.30;;;;;;4895135;29;20052;-65
2021/05/29 06:05:57;;;;;;;9.43;2.42;;;16.40;80.30;;;;;;4886152;29;20119;-64
2021/05/29 06:08:24;;;;;;;6.72;2.17;;;16.40;79.70;;;;;;4885054;29;20409;-64
2021/05/29 06:10:52;;;;;;;3.15;1.98;;;16.40;78.80;;;;;;4897023;29;20378;-63
2021/05/29 06:21:24;;;;;;;4.65;1.45;;;16.50;76.60;;;;;;4893988;29;20100;-64
2021/05/29 06:23:51;;;;;;;3.08;2.05;;;16.50;75.50;;;;;;4897239;29;20029;-64
2021/05/29 06:26:18;;;;;;;3.13;1.52;;;16.50;75.80;;;;;;4900551;29;20059;-64
2021/05/29 06:28:45;;;;;;;4.47;1.40;;;16.60;76.20;;;;;;4901754;29;20561;-64
2021/05/29 06:31:12;;;;;;;3.40;1.70;;;16.60;76.50;;;;;;4893755;29;20056;-64
2021/05/29 06:33:39;;;;;;;2.88;1.23;;;16.60;75.40;;;;;;4890274;29;20048;-64
2021/05/29 06:36:06;;;;;;;2.30;1.38;;;16.70;77.10;;;;;;4894946;29;20531;-64
2021/05/29 06:38:33;;;;;;;2.47;1.50;;;16.80;75.70;;;;;;4895365;29;20051;-64
2021/05/29 06:41:01;;;;;;;3.95;1.42;;;16.80;75.50;;;;;;4897640;29;20068;-64
2021/05/29 06:43:30;;;;;;;4.97;1.80;;;17.00;74.80;;;;;;4893619;29;20396;-64
2021/05/29 06:45:57;;;;;;;2.78;1.58;;;17.00;74.40;;;;;;4910933;29;20072;-64
2021/05/29 06:48:25;;;;;;;2.78;1.20;;;17.10;74.80;;;;;;4899992;29;20049;-64
2021/05/29 06:50:54;;;;;;;2.03;1.10;;;17.10;73.80;;;;;;4898493;29;20044;-64
2021/05/29 06:58:50;;;;;;;2.22;1.10;;;17.00;72.80;;;;;;4896416;29;20040;-64
2021/05/29 07:01:20;;;;;;;2.28;1.23;;;17.10;74.30;;;;;;4893744;29;20417;-64
2021/05/29 07:03:49;;;;;;;3.17;1.48;;;17.10;73.00;;;;;;4897106;29;20527;-64
2021/05/29 07:06:17;;;;;;;1.13;0.77;;;17.10;71.90;;;;;;4894859;29;20037;-64
2021/05/29 07:08:44;;;;;;;2.47;1.10;;;17.10;71.20;;;;;;4883946;29;20124;-63
2021/05/29 07:11:11;;;;;;;3.20;1.00;;;17.20;72.30;;;;;;4894345;29;20059;-63
2021/05/29 07:13:38;;;;;;;1.65;0.80;;;17.20;71.90;;;;;;4893446;29;20120;-64
2021/05/29 07:16:05;;;;;;;1.88;1.10;;;17.30;72.50;;;;;;4891957;29;20056;-64
2021/05/29 07:18:40;;;;;;;2.92;0.90;;;17.40;69.80;;;;;;4895759;29;20052;-64
2021/05/29 07:21:07;;;;;;;1.70;0.70;;;17.40;69.70;;;;;;4895058;29;20052;-63
2021/05/29 07:23:34;;;;;;;2.15;0.90;;;17.40;68.90;;;;;;4891932;29;20048;-64
2021/05/29 07:26:01;;;;;;;3.03;1.10;;;17.40;69.90;;;;;;4895517;29;20123;-64
2021/05/29 07:28:28;;;;;;;2.65;0.88;;;17.40;70.50;;;;;;4889768;29;20037;-64
2021/05/29 07:30:55;;;;;;;2.40;1.30;;;17.40;68.30;;;;;;4894514;29;20108;-64
2021/05/29 07:33:23;;;;;;;3.33;1.08;;;17.40;69.70;;;;;;4895080;29;20036;-64
2021/05/29 07:35:52;;;;;;;2.55;1.10;;;17.50;70.50;;;;;;4893257;29;20508;-64
2021/05/29 07:38:21;;;;;;;2.60;1.70;;;17.50;69.70;;;;;;4894647;29;20076;-64
2021/05/29 07:40:48;;;;;;;4.68;1.25;;;17.60;70.50;;;;;;4892333;29;20558;-66
2021/05/29 07:43:15;;;;;;;2.63;1.25;;;17.70;70.80;;;;;;4878379;29;20076;-66
2021/05/29 07:45:42;;;;;;;1.65;0.70;;;17.80;70.70;;;;;;4886789;29;20036;-67
2021/05/29 07:48:11;;;;;;;1.45;0.60;;;17.90;70.00;;;;;;4902237;29;20065;-64
2021/05/29 07:50:57;;;;;;;3.35;1.30;;;18.00;67.90;;;;;;4897648;29;20037;-64
2021/05/29 07:53:26;;;;;;;1.70;0.65;;;18.10;68.80;;;;;;4900165;29;20655;-64
2021/05/29 07:55:53;;;;;;;1.90;0.70;;;18.20;69.30;;;;;;4893740;29;20056;-64
2021/05/29 07:58:21;;;;;;;2.65;0.60;;;18.30;69.60;;;;;;4891308;29;20051;-64
2021/05/29 08:00:51;;;;;;;1.23;0.60;;;18.30;67.10;;;;;;4901472;29;20040;-64
2021/05/29 08:03:21;;;;;;;2.28;0.63;;;18.40;66.10;;;;;;4894041;29;20420;-64
2021/05/29 08:05:53;;;;;;;1.98;0.70;;;18.50;66.70;;;;;;4880974;29;20626;-65
2021/05/29 08:08:21;;;;;;;;;;;18.50;65.50;;;;;;4874981;29;20060;-65
2021/05/29 08:10:50;;;;;;;1.20;0.47;;;18.60;66.60;;;;;;4877647;29;20395;-65
2021/05/29 08:13:18;;;;;;;3.30;0.77;;;18.60;66.30;;;;;;4898953;29;20584;-65
2021/05/29 08:15:45;;;;;;;3.65;1.17;;;18.60;65.80;;;;;;4892878;29;20104;-65
2021/05/29 08:18:16;;;;;;;2.15;0.90;;;18.60;66.50;;;;;;4901671;29;20499;-65
2021/05/29 08:20:47;;;;;;;2.75;0.95;;;18.70;66.60;;;;;;4893105;29;20124;-65
2021/05/29 08:23:15;;;;;;;4.18;0.90;;;18.70;67.00;;;;;;4893745;29;20700;-65
2021/05/29 08:25:43;;;;;;;9.45;1.60;;;18.70;65.20;;;;;;4888862;29;20044;-65
2021/05/29 08:28:10;;;;;;;2.47;1.02;;;18.70;65.90;;;;;;4881803;29;20044;-65
2021/05/29 08:30:38;;;;;;;1.38;0.60;;;18.70;65.40;;;;;;4888415;29;20060;-65
2021/05/29 08:33:06;;;;;;;2.67;1.00;;;18.70;66.60;;;;;;4891236;29;20138;-65
2021/05/29 08:35:35;;;;;;;1.85;0.63;;;18.70;65.70;;;;;;4887908;29;20075;-65
2021/05/29 08:38:06;;;;;;;1.73;0.82;;;18.70;65.50;;;;;;4890698;29;20080;-65
2021/05/29 08:40:33;;;;;;;2.78;0.88;;;18.70;64.80;;;;;;4898370;29;20048;-65
2021/05/29 08:43:01;;;;;;;1.02;0.40;;;18.60;64.70;;;;;;4892971;29;20060;-65
2021/05/29 08:45:28;;;;;;;1.90;0.63;;;18.50;64.30;;;;;;4892870;29;20056;-65
2021/05/29 08:48:00;;;;;;;2.72;1.33;;;18.50;65.20;;;;;;4889455;29;20073;-65
2021/05/29 08:50:27;;;;;;;3.05;0.80;;;18.50;66.60;;;;;;4891776;29;20049;-65
2021/05/29 08:52:54;;;;;;;1.63;0.75;;;18.50;67.50;;;;;;4893180;29;20123;-65
2021/05/29 08:55:22;;;;;;;1.63;0.90;;;18.50;67.20;;;;;;4887248;29;20059;-72
2021/05/29 08:57:50;;;;;;;1.50;0.80;;;18.50;68.20;;;;;;4893928;29;20560;-72
2021/05/29 09:00:23;;;;;;;1.02;0.70;;;18.50;68.00;;;;;;4902233;29;20056;-71
2021/05/29 09:03:05;;;;;;;2.28;1.10;;;18.60;67.80;;;;;;4897907;29;20111;-72
2021/05/29 09:05:46;;;;;;;3.28;0.90;;;18.60;68.80;;;;;;4894562;29;20094;-69
2021/05/29 09:08:14;;;;;;;2.88;0.90;;;18.60;68.70;;;;;;4894184;29;20060;-70
2021/05/29 09:10:45;;;;;;;1.65;0.77;;;18.70;69.40;;;;;;4894246;29;20076;-69
2021/05/29 09:13:16;;;;;;;2.08;1.10;;;18.70;69.60;;;;;;4891151;29;20373;-70
2021/05/29 09:15:45;;;;;;;3.13;1.10;;;18.60;69.20;;;;;;4887864;29;20052;-71
2021/05/29 09:18:33;;;;;;;3.85;1.30;;;18.60;70.90;;;;;;4877029;29;20408;-72
2021/05/29 09:21:26;;;;;;;2.78;1.60;;;18.60;70.80;;;;;;4895870;29;20060;-72
2021/05/29 09:23:59;;;;;;;4.30;1.45;;;18.60;69.80;;;;;;4888912;29;20488;-73
2021/05/29 09:26:46;;;;;;;2.40;1.20;;;18.60;69.80;;;;;;4891498;29;20108;-72
2021/05/29 09:29:22;;;;;;;2.30;0.73;;;18.80;68.90;;;;;;4891547;29;20043;-69
2021/05/29 09:31:56;;;;;;;1.98;0.70;;;18.90;69.00;;;;;;4888700;29;20044;-69
2021/05/29 09:34:34;;;;;;;1.42;0.70;;;18.90;66.80;;;;;;4882997;29;20059;-69
2021/05/29 09:37:07;;;;;;;4.65;0.75;;;19.00;67.80;;;;;;4886758;29;20473;-68
2021/05/29 09:39:37;;;;;;;2.05;0.70;;;19.10;67.10;;;;;;4892914;29;20111;-68
2021/05/29 09:42:05;;;;;;;1.10;0.63;;;19.20;68.60;;;;;;4897095;29;20052;-68
2021/05/29 09:44:33;;;;;;;0.95;0.50;;;19.20;66.60;;;;;;4890999;29;20072;-68
2021/05/29 09:47:03;;;;;;;1.48;0.73;;;19.30;66.50;;;;;;4890640;29;20048;-68
2021/05/29 09:49:50;;;;;;;1.83;0.80;;;19.40;66.60;;;;;;4893404;29;20079;-68
2021/05/29 09:52:29;;;;;;;2.92;0.57;;;19.40;65.60;;;;;;4879129;29;20049;-68
2021/05/29 09:55:05;;;;;;;1.05;0.57;;;19.40;64.10;;;;;;4886937;29;20056;-68
2021/05/29 09:57:51;;;;;;;6.85;0.95;;;19.40;64.20;;;;;;4894996;29;20044;-68
2021/05/29 10:00:19;;;;;;;2.50;0.60;;;19.30;64.30;;;;;;4892421;29;20386;-68
2021/05/29 10:02:59;;;;;;;2.60;0.57;;;19.30;64.60;;;;;;4894787;29;20104;-68
2021/05/29 10:05:36;;;;;;;1.48;0.52;;;19.40;64.40;;;;;;4895677;29;20667;-68
2021/05/29 10:08:11;;;;;;;1.95;0.77;;;19.30;64.40;;;;;;4914554;29;20052;-68
2021/05/29 10:10:40;;;;;;;2.20;0.73;;;19.30;64.40;;;;;;4899343;29;20530;-68
2021/05/29 10:13:07;;;;;;;1.60;0.52;;;19.30;64.30;;;;;;4901306;29;20108;-68
2021/05/29 10:15:34;;;;;;;3.38;0.65;;;19.30;64.20;;;;;;4895180;29;20097;-68
2021/05/29 10:18:03;;;;;;;3.38;0.60;;;19.20;63.50;;;;;;4897074;29;20112;-68
2021/05/29 10:20:32;;;;;;;1.08;0.68;;;19.20;62.90;;;;;;4894530;29;20048;-68
2021/05/29 10:23:00;;;;;;;0.80;0.38;;;19.20;63.60;;;;;;4896543;29;20049;-68
2021/05/29 10:25:27;;;;;;;0.80;0.32;;;19.10;63.10;;;;;;4909602;29;20076;-69
2021/05/29 10:27:56;;;;;;;0.98;0.45;;;19.10;62.60;;;;;;4900128;29;20444;-69
2021/05/29 10:30:25;;;;;;;0.90;0.45;;;19.10;61.60;;;;;;4894445;29;20041;-68
2021/05/29 10:33:15;;;;;;;1.58;0.38;;;19.20;62.00;;;;;;4892225;29;20050;-68
2021/05/29 10:35:43;;;;;;;2.15;0.47;;;19.30;61.80;;;;;;4887447;29;20415;-67
2021/05/29 10:38:15;;;;;;;1.23;0.68;;;19.40;62.90;;;;;;4896855;29;20048;-67
2021/05/29 10:40:48;;;;;;;2.15;0.40;;;19.40;62.50;;;;;;4896628;29;20048;-67
2021/05/29 10:43:20;;;;;;;1.13;0.40;;;19.50;60.20;;;;;;4897902;29;20496;-68
2021/05/29 10:45:51;;;;;;;1.77;0.52;;;19.60;60.20;;;;;;4895145;29;20041;-68
2021/05/29 10:48:22;;;;;;;1.38;0.60;;;19.60;60.80;;;;;;4893974;29;20049;-68
2021/05/29 10:51:06;;;;;;;3.13;0.67;;;19.70;59.90;;;;;;4882196;29;20040;-68
2021/05/29 10:53:55;;;;;;;1.23;0.60;;;19.70;61.10;;;;;;4894647;29;20287;-68
2021/05/29 10:56:22;;;;;;;0.80;0.30;;;19.70;60.90;;;;;;4895203;29;20053;-68
2021/05/29 10:59:11;;;;;;;1.10;0.45;;;19.80;59.90;;;;;;4893110;29;20060;-68
2021/05/29 11:01:41;;;;;;;2.22;0.40;;;19.90;59.70;;;;;;4895101;29;20076;-68
2021/05/29 11:04:14;;;;;;;1.52;0.47;;;19.90;60.70;;;;;;4895804;29;20501;-67
2021/05/29 11:07:21;;;;;;;1.13;0.40;;;19.90;60.30;;;;;;4892331;29;20105;-69
2021/05/29 11:09:57;;;;;;;4.28;0.65;;;20.00;59.20;;;;;;4893455;29;20040;-67
2021/05/29 11:12:49;;;;;;;2.35;0.50;;;19.90;60.10;;;;;;4894852;29;20100;-67
2021/05/29 11:15:16;;;;;;;4.22;0.60;;;19.90;59.90;;;;;;4876294;29;20049;-67
2021/05/29 11:18:05;;;;;;;0.80;0.40;;;19.90;59.50;;;;;;4898315;29;20083;-67
2021/05/29 11:20:32;;;;;;;2.45;0.60;;;20.00;62.00;;;;;;4890825;29;20056;-68
2021/05/29 11:22:59;;;;;;;2.58;0.73;;;20.10;59.30;;;;;;4895602;29;20100;-68
2021/05/29 11:25:27;;;;;;;2.53;0.70;;;20.20;58.40;;;;;;4895529;29;20048;-68
2021/05/29 11:27:54;;;;;;;2.35;0.60;;;20.20;58.20;;;;;;4894197;29;20105;-67
2021/05/29 11:30:25;;;;;;;3.47;0.55;;;20.20;58.10;;;;;;4895411;29;20134;-67
2021/05/29 11:35:37;;;;;;;5.60;1.27;;;20.30;58.00;;;;;;4908532;29;20048;-67
2021/05/29 11:38:23;;;;;;;6.28;1.38;;;20.40;57.80;;;;;;4891998;29;20053;-66
2021/05/29 11:40:55;;;;;;;17.52;0.80;;;20.50;59.00;;;;;;4894486;29;20614;-67
2021/05/29 11:43:33;;;;;;;5.85;0.75;;;20.70;56.90;;;;;;4897669;29;20064;-67
2021/05/29 11:46:03;;;;;;;4.20;0.70;;;20.90;57.00;;;;;;4894509;29;20051;-67
2021/05/29 11:48:33;;;;;;;1.20;0.30;;;20.90;59.20;;;;;;4893878;29;20161;-67
2021/05/29 11:51:14;;;;;;;0.65;0.30;;;21.00;58.10;;;;;;4888345;29;20060;-67
2021/05/29 11:53:56;;;;;;;4.82;0.40;;;21.30;55.40;;;;;;4894678;29;20049;-67
2021/05/29 11:56:34;;;;;;;1.00;0.45;;;21.50;55.50;;;;;;4898775;29;20048;-67
2021/05/29 11:59:05;;;;;;;3.05;0.40;;;21.50;54.60;;;;;;4894847;29;20462;-67
2021/05/29 12:01:33;;;;;;;2.50;0.40;;;21.70;54.40;;;;;;4891497;29;20056;-67
2021/05/29 12:04:02;;;;;;;1.25;0.30;;;22.80;52.40;;;;;;4892819;29;20037;-67
2021/05/29 12:06:43;;;;;;;1.00;0.30;;;24.00;50.50;;;;;;4895352;29;20041;-67
2021/05/29 12:09:19;;;;;;;2.83;0.43;;;24.20;47.80;;;;;;4892582;29;20064;-67
2021/05/29 12:11:50;;;;;;;3.55;0.80;;;23.70;48.50;;;;;;4895738;29;20056;-67
2021/05/29 12:14:26;;;;;;;2.45;0.30;;;24.00;47.40;;;;;;4895665;29;20053;-66
2021/05/29 12:16:59;;;;;;;1.58;0.35;;;25.30;45.30;;;;;;4888000;29;20432;-66
2021/05/29 12:19:32;;;;;;;0.60;0.20;;;25.70;44.00;;;;;;4892512;29;20041;-67
2021/05/29 12:22:07;;;;;;;2.17;0.90;;;24.90;45.20;;;;;;4895259;29;20516;-67
2021/05/29 12:24:37;;;;;;;0.60;0.30;;;24.10;47.30;;;;;;4894879;29;20063;-67
2021/05/29 12:27:06;;;;;;;2.60;0.40;;;23.60;48.20;;;;;;4895463;29;20051;-67
2021/05/29 12:29:34;;;;;;;0.32;0.20;;;23.90;45.90;;;;;;4892848;29;20104;-67
2021/05/29 12:32:02;;;;;;;5.55;0.80;;;23.80;45.10;;;;;;4894607;29;20049;-67
2021/05/29 12:34:30;;;;;;;1.30;0.40;;;23.30;47.50;;;;;;4896198;29;20452;-67
2021/05/29 12:37:09;;;;;;;2.40;0.30;;;22.90;48.70;;;;;;4908058;29;20051;-67
2021/05/29 12:39:53;;;;;;;1.05;0.30;;;23.10;50.00;;;;;;4901301;29;20100;-67
2021/05/29 12:42:34;;;;;;;2.42;0.40;;;24.00;47.70;;;;;;4894407;29;20048;-67
2021/05/29 12:45:15;;;;;;;3.42;1.33;;;23.90;44.80;;;;;;4891055;29;20065;-67
2021/05/29 12:47:54;;;;;;;5.32;1.48;;;23.30;45.50;;;;;;4891235;29;20065;-67
2021/05/29 12:50:30;;;;;;;3.05;0.68;;;22.70;46.60;;;;;;4894234;29;20040;-67
2021/05/29 12:53:17;;;;;;;1.45;0.50;;;22.40;48.10;;;;;;4898001;29;20388;-67
2021/05/29 12:55:47;;;;;;;2.20;0.35;;;22.60;48.80;;;;;;4891661;29;20044;-67
2021/05/29 12:58:18;;;;;;;1.75;0.40;;;23.10;48.70;;;;;;4897930;29;20693;-68
2021/05/29 13:09:52;;;;;;;1.88;0.50;;;24.60;43.10;;;;;;4892709;29;20143;-67
2021/05/29 13:12:20;;;;;;;1.50;0.10;;;25.60;42.30;;;;;;4893872;29;20033;-67
2021/05/29 13:14:47;;;;;;;1.17;0.10;;;26.50;41.50;;;;;;4889976;29;20120;-68
2021/05/29 13:17:41;;;;;;;2.65;0.20;;;27.30;39.60;;;;;;4902983;29;20056;-67
2021/05/29 13:20:21;;;;;;;2.28;0.10;;;27.90;39.10;;;;;;4896566;29;20572;-67
2021/05/29 13:22:58;;;;;;;1.63;0.10;;;27.30;37.50;;;;;;4890803;29;20045;-68
2021/05/29 13:25:43;;;;;;;2.63;0.20;;;26.50;40.00;;;;;;4892151;29;20045;-68
2021/05/29 13:28:16;;;;;;;0.43;0.10;;;26.30;40.10;;;;;;4894732;29;20040;-68
2021/05/29 13:30:46;;;;;;;1.67;0.28;;;26.10;41.50;;;;;;4897540;29;20419;-68